Ripley, Tom
United StatesManBorn 19491983 – 2019Runner id 64524
Events
72
1983 – 2019
Best pace
11.872
km/h · 1991
Best finish
3rd
of 24 · 1992
Distance raced
4,838
km · splits not double-counted
Pace over time
km/h · higher is faster
Pace over time: 72 races from 1983 to 2019, ranging from 2.08 to 12.34 kilometres per hour, where higher is faster. A second, age-graded series is drawn above it; the gap between the two is the age credit.
- Actual pace
- Age-graded pace
Results
| Date | Event | Distance | Result | Pace km/h | Placing |
|---|---|---|---|---|---|
| 1983-04-10 | Falls to Gasworks Ultra RunUnited States | 75km | 7:34:00 h | 9.912 | 11/18 |
| 1984-04-08 | Falls to Gasworks Ultra RunUnited States | 75km | 6:56:55 h | 10.794 | 14/46 |
| 1985-04-27 | Green Lake 24 Hour RunUnited States | 24h | 174.452 km | 7.269 | 4/27 |
| 1986-04-26 | Falls to Gasworks Ultra RunUnited States | 75km | 6:23:07 h | 11.746 | 12/31 |
| 1987-06-27 | Western States 100 Mile Endurance RunUnited States | 100mi | 28:38:08 h | 5.620 | 141/183 |
| 1990-04-08 | Palouse 100K Relay And SoloUnited States | 100km | 12:21:24 h | 8.093 | 17/26 |
| 1990-04-22 | Falls to Gasworks Ultra RunUnited States | 75km | 6:57:12 h | 10.786 | 15/36 |
| 1991-04-21 | Falls to Gasworks Ultra RunUnited States | 75km | 6:19:03 h | 11.872 | 6/31 |
| 1992-04-19 | Falls to Gasworks Ultra RunUnited States | 75km | 6:32:18 h | 11.471 | 3/24 |
| 1995-04-23 | Falls to Gasworks Ultra RunUnited States | 75km | 9:22:46 h | 7.996 | 34/38 |
| 1995-09-30 | Cle Elum Ridge 50kUnited States | 50km | 6:23:00 h | 7.833 | 24/63 |
| 1995-11-11 | Granite Falls Run 50KUnited States | 50km | 5:09:51 h | 9.682 | 9/21 |
| 1996-01-20 | Bridle Trails Winter Running FestivalUnited States | 50km | 8:24:54 h | 5.942 | 17/18 |
| 1996-03-16 | Chuckanut 50KUnited States | 50km | 6:37:38 h | 7.545 | 35/46 |
| 1996-09-28 | Cle Elum Ridge 50kUnited States | 50km | 6:51:28 h | 7.291 | 42/79 |
| 1997-01-18 | Bridle Trails Winter Running FestivalUnited States | 50km | 8:16:00 h | 6.048 | 21/22 |
| 1997-03-15 | Chuckanut 50KUnited States | 50km | 6:29:02 h | 7.711 | 36/59 |
| 1997-07-26 | White River 50 Mile Trail RunUnited States | 47.6mi | 11:25:21 h | 6.706 | 58/67 |
| 1997-11-08 | Ron Herzog 50KUnited States | 50km | 5:16:00 h | 9.494 | 7/30 |
| 1998-01-17 | Bridle Trails Winter Running FestivalUnited States | 50km | 9:25:00 h | 5.310 | 25/26 |
| 1998-02-14 | Susitna 100 MileUnited States | 100mi | 37:25:00 h | 4.301 | 23/29 |
| 1998-03-21 | Chuckanut 50KUnited States | 50km | 6:28:23 h | 7.724 | 57/69 |
| 1998-04-11 | 50km | 6:48:25 h | 7.345 | 42/71 | |
| 1998-11-14 | Ron Herzog 50KUnited States | 50km | 5:28:22 h | 9.136 | 9/27 |
| 1999-01-16 | Bridle Trails Winter Running FestivalUnited States | 50km | 8:10:36 h | 6.115 | 23/24 |
| 1999-11-13 | Ron Herzog 50KUnited States | 50km | 5:34:32 h | 8.968 | 11/19 |
| 2000-01-15 | Bridle Trails Winter Running FestivalUnited States | 50km | 8:41:07 h | 5.757 | 35/36 |
| 2000-02-19 | 100mi | 37:08:00 h | 4.334 | 27/42 | |
| 2000-04-09 | Mt. Si 50 Miles Ultra RunUnited States | 56mi | 9:31:13 h | 9.466 | 23/26 |
| 2000-11-11 | Ron Herzog 50KUnited States | 50km | 6:11:08 h | 8.083 | 23/25 |
| 2001-01-13 | Bridle Trails Winter Running FestivalUnited States | 50km | 7:59:46 h | 6.253 | 32/33 |
| 2001-11-10 | Ron Herzog 50KUnited States | 50km | 5:54:40 h | 8.459 | 15/25 |
| 2002-01-12 | Bridle Trails Winter Running FestivalUnited States | 50km | 8:06:04 h | 6.172 | 36/37 |
| 2002-08-10 | 50mi | 12:16:44 h | 6.553 | 47/54 | |
| 2003-01-11 | Bridle Trails Winter Running FestivalUnited States | 50km | 7:56:00 h | 6.303 | 35/36 |
| 2003-02-09 | 100mi | 2d 05:45:00 h | 2.994 | 11/16 | |
| 2003-03-22 | 24h | 49.889 km | 2.079 | 43/47 | |
| 2004-05-22 | Watershed Preserve 12 Hr Trail RaceUnited States | 12h | 81.300 km | 6.775 | 11/17 |
| 2004-10-02 | Baker Lake 50K Ultra Trail RunUnited States | 50km | 7:45:52 h | 6.440 | 59/67 |
| 2005-03-19 | 24h | 50.050 km | 2.085 | 33/38 | |
| 2005-10-08 | 50mi | 12:48:59 h | 6.278 | 26/28 | |
| 2006-05-20 | Watershed Preserve 12 Hr Trail RaceUnited States | 12h | 51.901 km | 4.325 | 30/30 |
| 2006-11-11 | Ron Herzog 50KUnited States | 50km | 6:41:48 h | 7.466 | 26/32 |
| 2007-06-02 | Blanchard Mountain Trail UltraUnited States | 50km | 9:22:00 h | 5.338 | 14/15 |
| 2007-06-09 | Lake Youngs UltraUnited States | 28.8mi | 5:26:00 h | 8.531 | 44/62 |
| 2007-10-13 | The 20th Century 100K Trail RunUnited States | 100km | 12:36:00 h | 7.937 | 5/11 |
| 2008-04-13 | 50km | 5:34:55 h | 8.957 | 30/56 | |
| 2008-06-14 | Lake Youngs UltraUnited States | 28.8mi | 5:19:00 h | 8.718 | 63/95 |
| 2008-10-11 | 100mi | 28:17:38 h | 5.688 | 42/53 | |
| 2008-11-01 | Ron Herzog 50KUnited States | 50km | 5:59:00 h | 8.357 | 18/30 |
Showing 1–50 of 72